Time;durP1;ratioP1;P1;durP2;ratioP2;P2;SDS_P1;SDS_P2;PMS_P1;PMS_P2;Temp;Humidity;BMP_temperature;BMP_pressure;BME280_temperature;BME280_humidity;BME280_pressure;Samples;Min_cycle;Max_cycle;Signal;HPM_P1;HPM_P2
2021/11/04 00:00:20;;;;;;;3.43;2.10;;;9.20;99.90;;;;;;4999199;28;20846;-55
2021/11/04 00:02:46;;;;;;;7.97;2.23;;;9.20;99.90;;;;;;4995681;28;20440;-53
2021/11/04 00:05:13;;;;;;;5.43;2.00;;;9.00;99.90;;;;;;4992418;28;20837;-56
2021/11/04 00:07:39;;;;;;;2.50;2.30;;;9.00;99.90;;;;;;4995216;28;20218;-55
2021/11/04 00:10:06;;;;;;;2.20;2.00;;;9.00;99.90;;;;;;4993188;28;20448;-50
2021/11/04 00:12:32;;;;;;;3.30;2.10;;;8.90;99.90;;;;;;4998160;28;20427;-55
2021/11/04 00:14:57;;;;;;;4.87;2.30;;;8.90;99.90;;;;;;4997249;28;20452;-53
2021/11/04 00:17:27;;;;;;;2.87;2.57;;;9.00;99.90;;;;;;4995591;28;20228;-52
2021/11/04 00:19:52;;;;;;;3.37;2.20;;;8.90;99.90;;;;;;4984642;28;20677;-52
2021/11/04 00:22:18;;;;;;;3.50;2.53;;;8.90;99.90;;;;;;4990868;28;20448;-54
2021/11/04 00:24:44;;;;;;;2.37;2.17;;;9.00;99.90;;;;;;4996967;28;20225;-54
2021/11/04 00:27:09;;;;;;;2.90;2.23;;;9.30;99.90;;;;;;4981473;28;20225;-57
2021/11/04 00:29:35;;;;;;;3.43;2.23;;;9.30;99.90;;;;;;4995300;28;20189;-56
2021/11/04 00:32:02;;;;;;;2.63;2.43;;;9.10;99.90;;;;;;4995907;28;20189;-57
2021/11/04 00:34:28;;;;;;;2.67;2.37;;;9.00;99.90;;;;;;4996777;28;20229;-55
2021/11/04 00:36:54;;;;;;;5.20;2.37;;;9.00;99.90;;;;;;4994721;28;20832;-56
2021/11/04 00:39:19;;;;;;;3.70;2.63;;;9.10;99.90;;;;;;4995353;28;20559;-57
2021/11/04 00:41:46;;;;;;;2.53;2.20;;;8.90;99.90;;;;;;4994786;28;20538;-56
2021/11/04 00:44:12;;;;;;;3.30;2.00;;;9.00;99.90;;;;;;4995798;28;20239;-57
2021/11/04 00:46:38;;;;;;;2.80;2.40;;;9.10;99.90;;;;;;4978595;28;20965;-54
2021/11/04 00:49:04;;;;;;;2.73;2.13;;;9.20;99.90;;;;;;4999509;28;20181;-57
2021/11/04 00:51:30;;;;;;;2.63;2.30;;;9.00;99.90;;;;;;4996541;28;20491;-57
2021/11/04 00:53:56;;;;;;;3.50;2.40;;;8.90;99.90;;;;;;4997390;28;20207;-56
2021/11/04 00:56:21;;;;;;;3.90;2.63;;;8.90;99.90;;;;;;4995688;28;20721;-55
2021/11/04 00:58:50;;;;;;;4.13;2.20;;;9.00;99.90;;;;;;4997706;28;20448;-56
2021/11/04 01:01:20;;;;;;;3.40;2.70;;;8.90;99.90;;;;;;5002055;28;20546;-58
2021/11/04 01:03:47;;;;;;;2.60;2.40;;;8.90;99.90;;;;;;4998447;28;20439;-55
2021/11/04 01:06:13;;;;;;;2.97;2.70;;;8.90;99.90;;;;;;5002424;28;20551;-54
2021/11/04 01:08:39;;;;;;;3.33;2.90;;;8.90;99.90;;;;;;5001104;28;20520;-55
2021/11/04 01:11:05;;;;;;;4.40;2.57;;;8.90;99.90;;;;;;5001375;28;20218;-54
2021/11/04 01:13:30;;;;;;;2.70;2.50;;;9.00;99.90;;;;;;5004244;28;20424;-55
2021/11/04 01:15:56;;;;;;;4.33;2.87;;;9.00;99.90;;;;;;5001942;28;20455;-57
2021/11/04 01:18:21;;;;;;;3.50;3.20;;;8.90;99.90;;;;;;5002470;28;20237;-55
2021/11/04 01:20:47;;;;;;;4.37;3.47;;;8.80;99.90;;;;;;4997552;28;20207;-57
2021/11/04 01:23:13;;;;;;;3.20;2.70;;;8.80;99.90;;;;;;5001297;28;20620;-55
2021/11/04 01:25:38;;;;;;;5.90;3.50;;;8.80;99.90;;;;;;4986788;28;20260;-57
2021/11/04 01:28:08;;;;;;;2.87;2.53;;;8.70;99.90;;;;;;5000284;28;20520;-55
2021/11/04 01:30:35;;;;;;;3.33;3.00;;;8.60;99.90;;;;;;4998776;28;22498;-54
2021/11/04 01:33:01;;;;;;;4.17;3.27;;;8.60;99.90;;;;;;4999907;28;20425;-54
2021/11/04 01:35:26;;;;;;;5.10;3.77;;;8.60;99.90;;;;;;4996213;28;20498;-55
2021/11/04 01:37:52;;;;;;;5.27;4.40;;;8.50;99.90;;;;;;4988487;28;20307;-56
2021/11/04 01:40:17;;;;;;;4.43;3.70;;;8.50;99.90;;;;;;4996565;28;20193;-56
2021/11/04 01:42:43;;;;;;;4.53;3.90;;;8.60;99.90;;;;;;4999387;28;20184;-57
2021/11/04 01:45:09;;;;;;;6.83;3.57;;;8.60;99.90;;;;;;4998863;28;20248;-55
2021/11/04 01:47:35;;;;;;;3.73;3.40;;;8.70;99.90;;;;;;4999746;28;20304;-56
2021/11/04 01:50:01;;;;;;;4.17;3.77;;;8.70;99.90;;;;;;4998264;28;20182;-54
2021/11/04 01:52:27;;;;;;;4.63;4.20;;;8.70;99.90;;;;;;4999195;28;20439;-56
2021/11/04 01:54:52;;;;;;;4.20;3.60;;;8.70;99.90;;;;;;5000358;28;20432;-57
2021/11/04 01:57:18;;;;;;;5.47;3.43;;;8.60;99.90;;;;;;4996479;28;20591;-56
2021/11/04 01:59:43;;;;;;;5.90;4.20;;;8.60;99.90;;;;;;5001670;28;20189;-54
2021/11/04 02:02:17;;;;;;;4.87;4.33;;;8.70;99.90;;;;;;4999493;28;20250;-56
2021/11/04 02:05:09;;;;;;;5.63;4.27;;;8.60;99.90;;;;;;5001660;28;20192;-55
2021/11/04 02:07:43;;;;;;;4.37;3.93;;;8.60;99.90;;;;;;4995439;28;20471;-55
2021/11/04 02:10:27;;;;;;;5.80;4.67;;;8.60;99.90;;;;;;4993089;28;20890;-55
2021/11/04 02:12:58;;;;;;;5.30;4.13;;;8.50;99.90;;;;;;4985791;28;20420;-58
2021/11/04 02:15:28;;;;;;;4.60;3.87;;;8.40;99.90;;;;;;4998211;28;20444;-58
2021/11/04 02:17:57;;;;;;;7.30;5.03;;;8.40;99.90;;;;;;4996909;28;20467;-54
2021/11/04 02:20:43;;;;;;;6.20;4.47;;;8.30;99.90;;;;;;4997485;28;20495;-57
2021/11/04 02:23:33;;;;;;;7.87;4.70;;;8.30;99.90;;;;;;4999514;28;20445;-56
2021/11/04 02:26:00;;;;;;;5.90;4.30;;;8.30;99.90;;;;;;5005950;28;20461;-54
2021/11/04 02:28:26;;;;;;;6.43;4.70;;;8.20;99.90;;;;;;4997973;28;20436;-54
2021/11/04 02:30:52;;;;;;;5.20;4.63;;;8.30;99.90;;;;;;4996626;28;20452;-53
2021/11/04 02:33:21;;;;;;;5.83;4.43;;;8.30;99.90;;;;;;4998930;28;20465;-54
2021/11/04 02:35:51;;;;;;;5.30;4.63;;;8.30;99.90;;;;;;4994757;28;20437;-53
2021/11/04 02:38:19;;;;;;;5.10;4.27;;;8.40;99.90;;;;;;4994591;28;21169;-57
2021/11/04 02:40:45;;;;;;;5.07;4.57;;;8.30;99.90;;;;;;4995691;28;20432;-55
2021/11/04 02:43:13;;;;;;;6.33;4.93;;;8.40;99.90;;;;;;5002237;28;20456;-53
2021/11/04 02:45:40;;;;;;;5.60;4.33;;;8.40;99.90;;;;;;5000563;28;20940;-56
2021/11/04 02:48:06;;;;;;;5.73;4.13;;;8.40;99.90;;;;;;4993004;28;20476;-55
2021/11/04 02:50:32;;;;;;;5.63;4.13;;;8.30;99.90;;;;;;4999689;28;20440;-53
2021/11/04 02:52:58;;;;;;;5.13;3.77;;;8.30;99.90;;;;;;4995499;28;20472;-54
2021/11/04 02:55:38;;;;;;;5.50;4.30;;;8.40;99.90;;;;;;4999270;28;20887;-53
2021/11/04 02:58:09;;;;;;;6.33;4.77;;;8.40;99.90;;;;;;4997432;28;20213;-54
2021/11/04 03:00:37;;;;;;;5.37;4.27;;;8.30;99.90;;;;;;4994939;28;20442;-56
2021/11/04 03:03:03;;;;;;;7.40;3.80;;;8.30;99.90;;;;;;4999584;28;20444;-56
2021/11/04 03:05:29;;;;;;;5.60;4.30;;;8.50;99.90;;;;;;4996427;28;20424;-58
2021/11/04 03:07:55;;;;;;;6.77;4.90;;;8.40;99.90;;;;;;5001846;28;20471;-57
2021/11/04 03:10:21;;;;;;;5.57;4.10;;;8.40;99.90;;;;;;5001947;28;21078;-55
2021/11/04 03:12:47;;;;;;;8.83;4.80;;;8.40;99.90;;;;;;4997533;28;20424;-57
2021/11/04 03:15:17;;;;;;;5.80;4.50;;;8.30;99.90;;;;;;5001145;28;20850;-58
2021/11/04 03:17:43;;;;;;;6.70;4.90;;;8.30;99.90;;;;;;5000874;28;20208;-55
2021/11/04 03:20:10;;;;;;;6.30;4.53;;;8.30;99.90;;;;;;4998989;28;20520;-56
2021/11/04 03:22:38;;;;;;;7.20;4.93;;;8.20;99.90;;;;;;4994072;28;20806;-57
2021/11/04 03:25:04;;;;;;;5.50;4.53;;;8.10;99.90;;;;;;4998920;28;20543;-55
2021/11/04 03:27:32;;;;;;;8.30;5.50;;;8.10;99.90;;;;;;4995814;28;20467;-58
2021/11/04 03:30:00;;;;;;;6.20;4.93;;;8.10;99.90;;;;;;5000043;28;20432;-57
2021/11/04 03:32:26;;;;;;;5.87;4.60;;;8.00;99.90;;;;;;4999466;28;20428;-55
2021/11/04 03:34:53;;;;;;;8.03;5.40;;;8.10;99.90;;;;;;4996638;28;20444;-54
2021/11/04 03:37:20;;;;;;;6.17;5.57;;;8.00;99.90;;;;;;5000667;28;20881;-51
2021/11/04 03:39:46;;;;;;;6.67;5.73;;;8.00;99.90;;;;;;4995582;28;20790;-56
2021/11/04 03:42:12;;;;;;;7.47;5.13;;;8.10;99.90;;;;;;4998726;28;20564;-55
2021/11/04 03:44:40;;;;;;;6.40;5.20;;;8.10;99.90;;;;;;4998030;28;20479;-57
2021/11/04 03:47:07;;;;;;;6.03;4.90;;;8.00;99.90;;;;;;4995513;28;20567;-55
2021/11/04 03:49:34;;;;;;;7.50;5.67;;;8.10;99.90;;;;;;4998317;28;20427;-54
2021/11/04 03:51:59;;;;;;;6.57;5.60;;;8.10;99.90;;;;;;4995779;28;20468;-55
2021/11/04 03:54:29;;;;;;;6.47;5.37;;;8.10;99.90;;;;;;4991177;28;20875;-51
2021/11/04 03:56:56;;;;;;;7.50;5.70;;;8.00;99.90;;;;;;4984084;28;20212;-55
2021/11/04 03:59:23;;;;;;;7.17;5.20;;;8.00;99.90;;;;;;4995554;28;20476;-55
2021/11/04 04:01:50;;;;;;;6.20;5.30;;;7.90;99.90;;;;;;4998021;28;20456;-51
2021/11/04 04:04:16;;;;;;;7.37;5.57;;;7.90;99.90;;;;;;4997249;28;20538;-53
2021/11/04 04:06:41;;;;;;;9.40;5.10;;;7.90;99.90;;;;;;4995853;28;20586;-56
2021/11/04 04:09:09;;;;;;;4.93;4.00;;;7.90;99.90;;;;;;4994176;28;20192;-54
2021/11/04 04:11:34;;;;;;;5.83;4.87;;;7.80;99.90;;;;;;4997909;28;20223;-56
2021/11/04 04:14:00;;;;;;;5.00;4.13;;;7.80;99.90;;;;;;4994423;28;20435;-56
2021/11/04 04:16:26;;;;;;;5.00;3.80;;;7.70;99.90;;;;;;4992183;28;20212;-57
2021/11/04 04:18:52;;;;;;;4.23;3.37;;;7.80;99.90;;;;;;4995319;28;20562;-53
2021/11/04 04:21:19;;;;;;;6.20;4.73;;;7.70;99.90;;;;;;4996640;28;21496;-54
2021/11/04 04:23:45;;;;;;;7.37;5.00;;;7.70;99.90;;;;;;4995012;28;20548;-55
2021/11/04 04:26:11;;;;;;;6.00;4.50;;;7.60;99.90;;;;;;4995073;28;20471;-53
2021/11/04 04:28:37;;;;;;;5.93;5.00;;;7.60;99.90;;;;;;4993022;28;20910;-53
2021/11/04 04:31:03;;;;;;;6.10;5.23;;;7.60;99.90;;;;;;4993704;28;20440;-56
2021/11/04 04:33:28;;;;;;;8.17;5.83;;;7.60;99.90;;;;;;4993685;28;20188;-55
2021/11/04 04:35:55;;;;;;;5.73;4.60;;;7.70;99.90;;;;;;5006835;28;20200;-53
2021/11/04 04:38:22;;;;;;;5.63;4.23;;;7.70;99.90;;;;;;5001658;28;20213;-55
2021/11/04 04:43:47;;;;;;;4.60;4.10;;;7.70;99.90;;;;;;4992775;28;20432;-53
2021/11/04 04:46:13;;;;;;;4.97;4.20;;;7.60;99.90;;;;;;5001535;28;20979;-56
2021/11/04 04:48:38;;;;;;;5.73;4.60;;;7.60;99.90;;;;;;5017241;23;20236;-52
2021/11/04 04:51:04;;;;;;;5.13;4.63;;;7.60;99.90;;;;;;4995753;28;20197;-53
2021/11/04 04:53:29;;;;;;;5.20;4.40;;;7.60;99.90;;;;;;5005939;28;20270;-48
2021/11/04 04:55:55;;;;;;;4.77;4.27;;;7.70;99.90;;;;;;5001647;28;20192;-54
2021/11/04 04:58:20;;;;;;;5.83;4.40;;;7.70;99.90;;;;;;5001103;28;20225;-52
2021/11/04 05:00:46;;;;;;;5.70;4.60;;;7.80;99.90;;;;;;5000216;28;20591;-51
2021/11/04 05:03:12;;;;;;;7.17;4.80;;;7.70;99.90;;;;;;4999814;28;20670;-49
2021/11/04 05:05:37;;;;;;;5.93;4.97;;;7.80;99.90;;;;;;5002613;28;20197;-54
2021/11/04 05:08:03;;;;;;;9.03;4.10;;;7.70;99.90;;;;;;5002714;28;20733;-51
2021/11/04 05:10:29;;;;;;;4.90;4.40;;;7.70;99.90;;;;;;5002107;28;20193;-55
2021/11/04 05:12:54;;;;;;;5.30;4.70;;;7.70;99.90;;;;;;5004467;28;20454;-49
2021/11/04 05:15:20;;;;;;;5.00;4.30;;;7.70;99.90;;;;;;5001912;28;20221;-52
2021/11/04 05:17:46;;;;;;;4.83;4.33;;;7.70;99.90;;;;;;5005024;28;20215;-54
2021/11/04 05:20:11;;;;;;;4.80;4.00;;;7.80;99.90;;;;;;4999879;28;20189;-52
2021/11/04 05:22:37;;;;;;;5.60;5.00;;;7.80;99.90;;;;;;5000350;28;20219;-50
2021/11/04 05:25:03;;;;;;;4.97;4.23;;;7.80;99.90;;;;;;5001206;28;20192;-54
2021/11/04 05:27:29;;;;;;;4.70;4.30;;;7.80;99.90;;;;;;5001189;28;20647;-53
2021/11/04 05:29:56;;;;;;;3.80;3.43;;;7.80;99.90;;;;;;4999596;28;20428;-49
2021/11/04 05:32:22;;;;;;;4.90;3.90;;;7.70;99.90;;;;;;4999409;28;20475;-50
2021/11/04 05:34:48;;;;;;;3.77;3.47;;;7.70;99.90;;;;;;5003812;28;20445;-54
2021/11/04 05:37:14;;;;;;;4.07;3.53;;;7.60;99.90;;;;;;4999902;28;20467;-54
2021/11/04 05:39:40;;;;;;;4.63;4.13;;;7.60;99.90;;;;;;5002739;28;20435;-52
2021/11/04 05:42:06;;;;;;;4.07;3.67;;;7.60;99.90;;;;;;5002169;28;20204;-50
2021/11/04 05:44:32;;;;;;;6.20;4.47;;;7.70;99.90;;;;;;4998903;28;20451;-53
2021/11/04 05:46:58;;;;;;;6.53;4.00;;;7.70;99.90;;;;;;4997457;28;20992;-49
2021/11/04 05:49:24;;;;;;;6.03;4.00;;;7.70;99.90;;;;;;4998387;28;20185;-52
2021/11/04 05:51:49;;;;;;;5.00;4.17;;;7.70;99.90;;;;;;4994669;28;20447;-52
2021/11/04 05:54:15;;;;;;;4.60;4.10;;;7.70;99.90;;;;;;4994736;28;20244;-52
2021/11/04 05:56:41;;;;;;;5.70;4.73;;;7.70;99.90;;;;;;4998461;28;20194;-54
2021/11/04 05:59:06;;;;;;;5.93;5.07;;;7.60;99.90;;;;;;4998727;28;20181;-49
2021/11/04 06:01:32;;;;;;;5.87;5.00;;;7.60;99.90;;;;;;4996925;28;20233;-53
2021/11/04 06:03:58;;;;;;;6.17;4.93;;;7.60;99.90;;;;;;4997565;28;20334;-49
2021/11/04 06:06:23;;;;;;;5.20;4.37;;;7.60;99.90;;;;;;4996949;28;20254;-52
2021/11/04 06:08:49;;;;;;;5.97;5.30;;;7.50;99.90;;;;;;4997134;28;20272;-53
2021/11/04 06:11:14;;;;;;;6.57;5.63;;;7.50;99.90;;;;;;4998814;28;20177;-53
2021/11/04 06:13:40;;;;;;;5.80;4.63;;;7.60;99.90;;;;;;4995508;28;20256;-49
2021/11/04 06:16:12;;;;;;;9.67;5.20;;;7.60;99.90;;;;;;4995117;28;20186;-52
2021/11/04 06:18:38;;;;;;;5.30;4.53;;;7.60;99.90;;;;;;5000672;28;20208;-51
2021/11/04 06:21:04;;;;;;;8.80;5.90;;;7.60;99.90;;;;;;4999611;28;20443;-50
2021/11/04 06:23:30;;;;;;;6.97;5.83;;;7.60;99.90;;;;;;4998267;28;20198;-53
2021/11/04 06:25:55;;;;;;;8.60;5.00;;;7.60;99.90;;;;;;4995788;28;20619;-54
2021/11/04 06:28:21;;;;;;;6.30;5.40;;;7.60;99.90;;;;;;4997707;28;20547;-53
2021/11/04 06:30:46;;;;;;;7.00;5.73;;;7.60;99.90;;;;;;4988849;28;20226;-54
2021/11/04 06:33:12;;;;;;;7.47;6.23;;;7.60;99.90;;;;;;4995494;28;20208;-52
2021/11/04 06:35:38;;;;;;;8.07;6.17;;;7.60;99.90;;;;;;4994783;28;20239;-54
2021/11/04 06:38:03;;;;;;;9.10;6.47;;;7.60;99.90;;;;;;4992377;28;20244;-50
2021/11/04 06:40:29;;;;;;;7.10;5.90;;;7.60;99.90;;;;;;4993606;28;20195;-51
2021/11/04 06:42:54;;;;;;;8.10;6.27;;;7.50;99.90;;;;;;4995336;28;20193;-53
2021/11/04 06:45:20;;;;;;;9.27;7.30;;;7.50;99.90;;;;;;4997778;28;20202;-51
2021/11/04 06:47:50;;;;;;;9.10;6.47;;;7.50;99.90;;;;;;4993925;28;20578;-49
2021/11/04 06:50:17;;;;;;;9.40;6.80;;;7.60;99.90;;;;;;4995422;28;20436;-54
2021/11/04 06:53:00;;;;;;;8.53;7.07;;;7.60;99.90;;;;;;4992619;28;20428;-52
2021/11/04 06:55:27;;;;;;;8.70;7.37;;;7.60;99.90;;;;;;4995258;28;20432;-53
2021/11/04 06:58:02;;;;;;;8.53;6.83;;;7.60;99.90;;;;;;4995587;28;20836;-52
2021/11/04 07:00:33;;;;;;;9.30;7.13;;;7.60;99.90;;;;;;4998230;28;20488;-54
2021/11/04 07:03:14;;;;;;;10.80;7.83;;;7.70;99.90;;;;;;4994144;28;20444;-50
2021/11/04 07:05:43;;;;;;;11.13;8.37;;;7.70;99.90;;;;;;5002176;28;20459;-52
2021/11/04 07:08:19;;;;;;;14.00;10.00;;;7.70;99.90;;;;;;4997948;28;20895;-54
2021/11/04 07:10:47;;;;;;;11.40;8.67;;;7.70;99.90;;;;;;4993056;28;20466;-54
2021/11/04 07:13:14;;;;;;;13.63;9.47;;;7.70;99.90;;;;;;4997843;28;20816;-52
2021/11/04 07:15:41;;;;;;;13.70;10.17;;;7.70;99.90;;;;;;4996395;28;20464;-53
2021/11/04 07:18:10;;;;;;;13.43;9.17;;;7.80;99.90;;;;;;4996426;28;20444;-51
2021/11/04 07:20:38;;;;;;;14.17;10.27;;;7.70;99.90;;;;;;4996331;28;20909;-49
2021/11/04 07:23:07;;;;;;;18.80;10.73;;;7.80;99.90;;;;;;4999585;28;20921;-51
2021/11/04 07:25:34;;;;;;;13.40;10.37;;;7.80;99.90;;;;;;4998742;28;20490;-52
2021/11/04 07:28:16;;;;;;;15.83;11.13;;;7.90;99.90;;;;;;4995066;28;20471;-55
2021/11/04 07:30:43;;;;;;;13.27;10.23;;;7.90;99.90;;;;;;4998680;28;20440;-54
2021/11/04 07:33:09;;;;;;;16.00;11.53;;;7.80;99.90;;;;;;4991052;28;20867;-52
2021/11/04 07:35:40;;;;;;;17.43;11.07;;;7.90;99.90;;;;;;4996949;28;20442;-51
2021/11/04 07:38:09;;;;;;;13.60;9.40;;;7.90;99.90;;;;;;4997319;28;21572;-54
2021/11/04 07:40:35;;;;;;;14.90;11.03;;;7.90;99.90;;;;;;4996077;28;20485;-54
2021/11/04 07:43:00;;;;;;;15.83;10.30;;;8.00;99.90;;;;;;4995195;28;20914;-51
2021/11/04 07:45:28;;;;;;;16.80;11.37;;;7.90;99.90;;;;;;4988714;28;20181;-51
2021/11/04 07:47:54;;;;;;;16.40;10.80;;;7.90;99.90;;;;;;4978441;28;20750;-52
2021/11/04 07:50:23;;;;;;;15.13;10.97;;;7.80;99.90;;;;;;4994099;28;20432;-53
2021/11/04 07:52:49;;;;;;;15.90;10.57;;;7.90;99.90;;;;;;4993454;28;20185;-51
2021/11/04 07:55:15;;;;;;;17.47;10.20;;;7.90;99.90;;;;;;4998498;28;20432;-55
2021/11/04 07:57:41;;;;;;;18.37;11.67;;;7.90;99.90;;;;;;4998658;28;20960;-50
2021/11/04 08:00:09;;;;;;;14.80;10.10;;;8.00;99.90;;;;;;4996379;28;20429;-51
2021/11/04 08:02:35;;;;;;;16.63;11.23;;;8.00;99.90;;;;;;4997218;28;20440;-49
2021/11/04 08:05:01;;;;;;;15.63;10.50;;;8.00;99.90;;;;;;4998705;28;20547;-52
2021/11/04 08:07:29;;;;;;;13.13;9.20;;;8.00;99.90;;;;;;4997794;28;20209;-51
2021/11/04 08:09:56;;;;;;;16.17;10.90;;;8.10;99.90;;;;;;4995613;28;20178;-51
2021/11/04 08:12:22;;;;;;;13.27;9.30;;;8.10;99.90;;;;;;4999182;28;20511;-53
2021/11/04 08:14:47;;;;;;;17.23;11.40;;;8.10;99.90;;;;;;4997932;28;20958;-53
2021/11/04 08:17:13;;;;;;;19.90;12.90;;;8.10;99.90;;;;;;4996436;28;20717;-51
2021/11/04 08:19:39;;;;;;;12.87;9.90;;;8.00;99.90;;;;;;4993090;28;20189;-52
2021/11/04 08:22:04;;;;;;;14.03;9.80;;;8.10;99.90;;;;;;4999879;28;20197;-49
2021/11/04 08:24:30;;;;;;;13.83;10.30;;;8.00;99.90;;;;;;4996090;28;20211;-52
2021/11/04 08:26:56;;;;;;;16.67;10.53;;;8.00;99.90;;;;;;4996713;28;20539;-52
2021/11/04 08:29:22;;;;;;;16.77;11.13;;;8.00;99.90;;;;;;4996502;28;20529;-50
2021/11/04 08:31:47;;;;;;;19.73;12.10;;;8.10;99.90;;;;;;5002508;28;20505;-56
2021/11/04 08:34:13;;;;;;;16.10;11.60;;;8.10;99.90;;;;;;4998242;28;20248;-54
2021/11/04 08:36:39;;;;;;;17.10;12.10;;;8.10;99.90;;;;;;4996503;28;20636;-49
2021/11/04 08:39:06;;;;;;;19.57;14.30;;;8.00;99.90;;;;;;4999468;28;20269;-52
2021/11/04 08:41:31;;;;;;;14.73;11.07;;;8.00;99.90;;;;;;4993255;28;20212;-50
2021/11/04 08:43:57;;;;;;;23.73;12.53;;;8.00;99.90;;;;;;4998909;28;20452;-53
2021/11/04 08:46:22;;;;;;;19.17;12.93;;;8.00;99.90;;;;;;5000609;28;20681;-55
2021/11/04 08:48:48;;;;;;;17.30;12.00;;;8.00;99.90;;;;;;4995897;28;20196;-53
2021/11/04 08:51:15;;;;;;;18.30;12.60;;;8.10;99.90;;;;;;5003927;28;20192;-52
2021/11/04 08:53:40;;;;;;;20.00;13.73;;;8.10;99.90;;;;;;4994532;28;20504;-52
2021/11/04 08:56:10;;;;;;;18.50;12.80;;;8.10;99.90;;;;;;4998444;28;20543;-50
2021/11/04 08:58:36;;;;;;;20.50;11.77;;;8.10;99.90;;;;;;4997499;28;20201;-52
2021/11/04 09:01:03;;;;;;;17.17;11.70;;;8.10;99.90;;;;;;4997280;28;20501;-55
2021/11/04 09:03:29;;;;;;;19.17;12.80;;;8.20;99.90;;;;;;5000117;28;20781;-50
2021/11/04 09:05:55;;;;;;;19.20;11.77;;;8.20;99.90;;;;;;4995752;28;20502;-52
2021/11/04 09:08:23;;;;;;;19.90;13.80;;;8.20;99.90;;;;;;4995144;28;20205;-51
2021/11/04 09:10:49;;;;;;;18.97;12.17;;;8.30;99.90;;;;;;4996235;28;20482;-53
2021/11/04 09:13:15;;;;;;;20.27;13.10;;;8.30;99.90;;;;;;4998385;28;20459;-53
2021/11/04 09:15:41;;;;;;;25.30;13.43;;;8.30;99.90;;;;;;4993362;28;20440;-49
2021/11/04 09:18:07;;;;;;;21.30;13.23;;;8.30;99.90;;;;;;4994393;28;21028;-52
2021/11/04 09:20:33;;;;;;;21.70;13.90;;;8.40;99.90;;;;;;4998382;28;20239;-51
2021/11/04 09:22:59;;;;;;;27.90;15.73;;;8.40;99.90;;;;;;4995695;28;20212;-52
2021/11/04 09:25:25;;;;;;;24.90;14.40;;;8.30;99.90;;;;;;5003362;28;20447;-55
2021/11/04 09:27:54;;;;;;;24.73;15.13;;;8.40;99.90;;;;;;4999689;28;20214;-52
2021/11/04 09:30:19;;;;;;;21.07;14.50;;;8.40;99.90;;;;;;4998820;28;20192;-53
2021/11/04 09:32:45;;;;;;;24.00;14.60;;;8.40;99.90;;;;;;4999724;28;20445;-53
2021/11/04 09:35:13;;;;;;;24.83;15.03;;;8.30;99.90;;;;;;4998736;28;20212;-51
2021/11/04 09:37:39;;;;;;;27.50;15.00;;;8.40;99.90;;;;;;4997926;28;20448;-50
2021/11/04 09:40:06;;;;;;;28.43;15.63;;;8.40;99.90;;;;;;5000941;28;20477;-52
2021/11/04 09:42:32;;;;;;;28.57;16.13;;;8.40;99.90;;;;;;5002190;28;20874;-51
2021/11/04 09:44:59;;;;;;;27.47;17.60;;;8.50;99.90;;;;;;5000440;28;20436;-54
2021/11/04 09:47:27;;;;;;;27.53;16.47;;;8.50;99.90;;;;;;4998382;28;20499;-53
2021/11/04 09:49:53;;;;;;;25.50;15.80;;;8.50;99.90;;;;;;4995511;28;20839;-53
2021/11/04 09:52:31;;;;;;;22.60;15.07;;;8.50;99.90;;;;;;4998279;28;20467;-52
2021/11/04 09:54:57;;;;;;;26.87;16.30;;;8.40;99.90;;;;;;4996276;28;20432;-52
2021/11/04 09:57:24;;;;;;;25.17;15.40;;;8.50;99.90;;;;;;4982367;28;20484;-51
2021/11/04 09:59:51;;;;;;;28.60;17.07;;;8.40;99.90;;;;;;4991616;28;20850;-53
2021/11/04 10:02:19;;;;;;;29.10;17.00;;;8.30;99.90;;;;;;4995403;28;20440;-52
2021/11/04 10:04:45;;;;;;;25.20;14.73;;;8.40;99.90;;;;;;4991990;28;20444;-53
2021/11/04 10:07:12;;;;;;;30.60;17.17;;;8.50;99.90;;;;;;4993841;28;20921;-52
2021/11/04 10:09:39;;;;;;;27.60;16.57;;;8.40;99.90;;;;;;4993783;28;20537;-49
2021/11/04 10:12:06;;;;;;;30.33;18.47;;;8.40;99.90;;;;;;4994149;28;20686;-51
2021/11/04 10:14:34;;;;;;;28.70;17.67;;;8.40;99.90;;;;;;4997143;28;20432;-54
2021/11/04 10:17:00;;;;;;;27.20;17.60;;;8.40;99.90;;;;;;4993675;28;21030;-48
2021/11/04 10:19:39;;;;;;;25.50;18.20;;;8.40;99.90;;;;;;4995431;28;20444;-50
2021/11/04 10:22:05;;;;;;;25.97;17.87;;;8.40;99.90;;;;;;4996638;28;20568;-52
2021/11/04 10:24:31;;;;;;;25.37;16.60;;;8.30;99.90;;;;;;4996799;28;20436;-51
2021/11/04 10:26:56;;;;;;;28.97;17.70;;;8.30;99.90;;;;;;4989396;28;20755;-53
2021/11/04 10:29:25;;;;;;;27.27;17.07;;;8.30;99.90;;;;;;4993533;28;20184;-54
2021/11/04 10:31:54;;;;;;;27.00;16.17;;;8.20;99.90;;;;;;4991775;28;20627;-50
2021/11/04 10:34:28;;;;;;;31.40;18.60;;;8.20;99.90;;;;;;4993165;28;20475;-57
2021/11/04 10:37:08;;;;;;;28.10;17.27;;;8.30;99.90;;;;;;4991874;28;20461;-50
2021/11/04 10:39:40;;;;;;;31.80;18.93;;;8.30;99.90;;;;;;4991496;28;20432;-54
2021/11/04 10:42:06;;;;;;;26.13;16.83;;;8.30;99.90;;;;;;4992441;28;20451;-51
2021/11/04 10:44:32;;;;;;;28.47;17.33;;;8.20;99.90;;;;;;4994119;28;20444;-53
2021/11/04 10:46:58;;;;;;;30.90;18.40;;;8.20;99.90;;;;;;5014175;22;20471;-58
2021/11/04 10:49:27;;;;;;;24.83;17.47;;;8.30;99.90;;;;;;5014331;28;20454;-55
2021/11/04 10:51:58;;;;;;;26.80;17.73;;;8.30;99.90;;;;;;5011600;28;20721;-53
2021/11/04 10:54:24;;;;;;;28.13;18.30;;;8.40;99.90;;;;;;5015273;28;20544;-53
2021/11/04 10:56:55;;;;;;;29.67;18.77;;;8.40;99.90;;;;;;5013156;28;20999;-56
2021/11/04 10:59:21;;;;;;;25.40;18.97;;;8.50;99.90;;;;;;5015584;28;20450;-57
2021/11/04 11:01:49;;;;;;;23.17;16.10;;;8.40;99.90;;;;;;5016008;28;20534;-55
2021/11/04 11:04:17;;;;;;;27.30;19.50;;;8.40;99.90;;;;;;5012284;28;20442;-56
2021/11/04 11:06:48;;;;;;;25.27;17.03;;;8.40;99.90;;;;;;5007754;28;20470;-54
2021/11/04 11:09:24;;;;;;;28.70;18.30;;;8.40;99.90;;;;;;5013630;28;20491;-54
2021/11/04 11:11:59;;;;;;;29.40;17.83;;;8.40;99.90;;;;;;5009307;28;20477;-58
2021/11/04 11:14:26;;;;;;;33.20;17.60;;;8.50;99.90;;;;;;5011106;28;20439;-56
2021/11/04 11:16:55;;;;;;;27.87;17.00;;;8.40;99.90;;;;;;5012442;28;20505;-55
2021/11/04 11:19:42;;;;;;;27.37;16.80;;;8.40;99.90;;;;;;5012025;28;20970;-53
2021/11/04 11:22:08;;;;;;;22.93;15.60;;;8.40;99.90;;;;;;5009048;28;20987;-57
2021/11/04 11:24:37;;;;;;;25.37;16.13;;;8.40;99.90;;;;;;4991793;28;20581;-56
2021/11/04 11:27:06;;;;;;;23.73;16.80;;;8.30;99.90;;;;;;5009579;28;21079;-57
2021/11/04 11:29:34;;;;;;;24.53;16.40;;;8.40;99.90;;;;;;5008261;28;20846;-55
2021/11/04 11:32:00;;;;;;;25.97;17.40;;;8.50;99.90;;;;;;4992302;28;20432;-56
2021/11/04 11:34:26;;;;;;;23.83;15.87;;;8.50;99.90;;;;;;5009845;28;20466;-55
2021/11/04 11:37:11;;;;;;;23.07;16.83;;;8.50;99.90;;;;;;5011904;28;20193;-57
2021/11/04 11:40:10;;;;;;;24.37;16.30;;;8.50;99.90;;;;;;5012692;28;20908;-57
2021/11/04 11:42:36;;;;;;;23.10;17.17;;;8.50;99.90;;;;;;5007656;28;20948;-55
2021/11/04 11:45:13;;;;;;;21.57;15.23;;;8.50;99.90;;;;;;5011583;28;20440;-57
2021/11/04 11:47:45;;;;;;;22.27;15.13;;;8.50;99.90;;;;;;4996575;28;20485;-55
2021/11/04 11:50:21;;;;;;;22.00;15.40;;;8.50;99.90;;;;;;5014491;28;20890;-57
2021/11/04 11:53:21;;;;;;;22.73;14.47;;;8.50;99.90;;;;;;5016299;28;20423;-57
2021/11/04 11:55:48;;;;;;;22.57;14.53;;;8.50;99.90;;;;;;5013095;28;20444;-55
2021/11/04 11:58:21;;;;;;;23.70;14.83;;;8.40;99.90;;;;;;4990607;28;21086;-56
2021/11/04 12:00:54;;;;;;;22.30;15.53;;;8.40;99.90;;;;;;5015055;28;20439;-50
2021/11/04 12:03:32;;;;;;;22.07;15.60;;;8.40;99.90;;;;;;5015455;28;20451;-53
2021/11/04 12:06:24;;;;;;;18.73;13.50;;;8.40;99.90;;;;;;5009723;28;20428;-54
2021/11/04 12:08:56;;;;;;;22.37;15.00;;;8.50;99.90;;;;;;4992342;28;20447;-56
2021/11/04 12:11:34;;;;;;;21.40;15.80;;;8.40;99.90;;;;;;5009913;28;20439;-57
2021/11/04 12:14:20;;;;;;;20.20;15.20;;;8.50;99.90;;;;;;5017894;28;20525;-54
2021/11/04 12:17:05;;;;;;;21.80;16.23;;;8.50;99.90;;;;;;5003758;28;20455;-55
2021/11/04 12:19:53;;;;;;;21.10;15.60;;;8.60;99.90;;;;;;5015020;28;20454;-52
2021/11/04 12:22:19;;;;;;;23.03;15.87;;;8.60;99.90;;;;;;4998429;28;20952;-56
2021/11/04 12:25:09;;;;;;;20.53;15.07;;;8.60;99.90;;;;;;5015831;28;20443;-56
2021/11/04 12:27:43;;;;;;;22.70;15.27;;;8.50;99.90;;;;;;5010583;28;20213;-54
2021/11/04 12:30:13;;;;;;;25.30;17.63;;;8.50;99.90;;;;;;5008112;28;20855;-53
2021/11/04 12:32:39;;;;;;;22.60;15.00;;;8.60;99.90;;;;;;5012470;28;20901;-52
2021/11/04 12:35:06;;;;;;;21.43;14.23;;;8.60;99.90;;;;;;5010661;28;20472;-57
2021/11/04 12:37:33;;;;;;;20.00;14.40;;;8.60;99.90;;;;;;5009182;28;20303;-56
2021/11/04 12:40:08;;;;;;;22.30;15.53;;;8.60;99.90;;;;;;5008374;28;20455;-58
2021/11/04 12:42:34;;;;;;;21.17;15.37;;;8.60;99.90;;;;;;5015200;28;20433;-57
2021/11/04 12:45:00;;;;;;;19.53;14.07;;;8.70;99.90;;;;;;5008504;28;20851;-55
2021/11/04 12:47:26;;;;;;;21.67;15.07;;;8.70;99.90;;;;;;5009680;28;20474;-54
2021/11/04 12:49:53;;;;;;;20.93;15.67;;;8.80;99.90;;;;;;4996058;28;20200;-55
2021/11/04 12:52:21;;;;;;;23.77;15.40;;;8.70;99.90;;;;;;5010754;28;20828;-56
2021/11/04 12:54:53;;;;;;;22.10;16.00;;;8.80;99.90;;;;;;5012707;28;20469;-56